createdAt,value
2016-09-15T00:00:50.607Z,0
2016-09-15T00:01:50.634Z,0
2016-09-15T00:02:50.695Z,0
2016-09-15T00:03:50.689Z,0
2016-09-15T00:04:50.715Z,0
2016-09-15T00:05:50.738Z,0
2016-09-15T00:06:50.767Z,0
2016-09-15T00:07:50.799Z,0
2016-09-15T00:08:50.823Z,0
2016-09-15T00:09:50.848Z,0
2016-09-15T00:10:50.877Z,0
2016-09-15T00:11:50.901Z,0
2016-09-15T00:12:50.930Z,0
2016-09-15T00:13:50.955Z,0
2016-09-15T00:14:50.987Z,0
2016-09-15T00:15:51.012Z,0
2016-09-15T00:16:51.042Z,0
2016-09-15T00:17:51.073Z,0
2016-09-15T00:18:51.087Z,0
2016-09-15T00:19:51.118Z,0
2016-09-15T00:20:51.147Z,0
2016-09-15T00:21:51.172Z,0
2016-09-15T00:22:51.201Z,0
2016-09-15T00:23:51.227Z,0
2016-09-15T00:24:51.247Z,0
2016-09-15T00:25:51.277Z,0
2016-09-15T00:26:51.301Z,0
2016-09-15T00:27:51.328Z,0
2016-09-15T00:28:51.355Z,0
2016-09-15T00:29:51.380Z,0
2016-09-15T00:30:51.414Z,0
2016-09-15T00:31:51.433Z,0
2016-09-15T00:32:51.462Z,0
2016-09-15T00:33:51.492Z,0
2016-09-15T00:34:51.516Z,0
2016-09-15T00:35:51.544Z,0
2016-09-15T00:36:51.571Z,0
2016-09-15T00:37:51.597Z,0
2016-09-15T00:38:51.623Z,0
2016-09-15T00:39:51.653Z,0
2016-09-15T00:40:51.677Z,0
2016-09-15T00:41:51.708Z,0
2016-09-15T00:42:51.730Z,0
2016-09-15T00:43:51.757Z,0
2016-09-15T00:44:51.786Z,0
2016-09-15T00:45:51.812Z,0
2016-09-15T00:46:51.838Z,0
2016-09-15T00:47:51.862Z,0
2016-09-15T00:48:51.895Z,0
2016-09-15T00:49:51.911Z,0
2016-09-15T00:50:51.942Z,0
2016-09-15T00:51:52.279Z,0
2016-09-15T00:52:51.998Z,0
2016-09-15T00:53:52.021Z,0
2016-09-15T00:54:52.046Z,0
2016-09-15T00:55:52.076Z,0
2016-09-15T00:56:52.108Z,0
2016-09-15T00:57:52.133Z,0
2016-09-15T00:58:52.168Z,0
2016-09-15T00:59:52.181Z,0
2016-09-15T01:00:52.211Z,0
2016-09-15T01:01:52.238Z,0
2016-09-15T01:02:52.259Z,0
2016-09-15T01:03:52.295Z,0
2016-09-15T01:04:52.312Z,0
2016-09-15T01:05:52.341Z,0
2016-09-15T01:06:52.366Z,0
2016-09-15T01:07:52.403Z,0
2016-09-15T01:08:52.416Z,0
2016-09-15T01:09:52.448Z,0
2016-09-15T01:10:52.471Z,0
2016-09-15T01:11:52.498Z,0
2016-09-15T01:12:52.524Z,0
2016-09-15T01:13:52.551Z,0
2016-09-15T01:14:52.579Z,0
2016-09-15T01:15:52.602Z,0
2016-09-15T01:16:52.631Z,0
2016-09-15T01:17:52.658Z,0
2016-09-15T01:18:52.683Z,0
2016-09-15T01:19:52.708Z,0
2016-09-15T01:20:52.733Z,0
2016-09-15T01:21:52.761Z,0
2016-09-15T01:22:52.782Z,0
2016-09-15T01:23:52.811Z,0
2016-09-15T01:24:52.848Z,0
2016-09-15T01:25:52.863Z,0
2016-09-15T01:26:52.897Z,0
2016-09-15T01:27:52.916Z,0
2016-09-15T01:28:52.946Z,0
2016-09-15T01:29:52.972Z,0
2016-09-15T01:30:53.001Z,0
2016-09-15T01:31:53.024Z,0
2016-09-15T01:32:53.047Z,0
2016-09-15T01:33:53.087Z,0
2016-09-15T01:34:53.101Z,0
2016-09-15T01:35:53.131Z,0
2016-09-15T01:36:53.465Z,0
2016-09-15T01:37:53.178Z,0
2016-09-15T01:38:53.217Z,0
2016-09-15T01:39:53.234Z,0
2016-09-15T01:40:53.268Z,0
2016-09-15T01:41:53.289Z,0
2016-09-15T01:42:53.310Z,0
2016-09-15T01:43:53.339Z,0
2016-09-15T01:44:53.361Z,0
2016-09-15T01:45:53.399Z,0
2016-09-15T01:46:53.425Z,0
2016-09-15T01:47:53.439Z,0
2016-09-15T01:48:53.468Z,0
2016-09-15T01:49:53.493Z,0
2016-09-15T01:50:53.517Z,0
2016-09-15T01:51:53.542Z,0
2016-09-15T01:52:53.578Z,0
2016-09-15T01:53:53.598Z,0
2016-09-15T01:54:53.622Z,0
2016-09-15T01:55:53.650Z,0
2016-09-15T01:56:53.676Z,0
2016-09-15T01:57:54.023Z,0
2016-09-15T01:58:53.723Z,0
2016-09-15T01:59:53.754Z,0
2016-09-15T02:00:53.788Z,0
2016-09-15T02:01:53.803Z,0
2016-09-15T02:02:53.833Z,0
2016-09-15T02:03:53.881Z,0
2016-09-15T02:04:53.880Z,0
2016-09-15T02:05:53.905Z,0
2016-09-15T02:06:53.934Z,0
2016-09-15T02:07:53.958Z,0
2016-09-15T02:08:53.986Z,0
2016-09-15T02:09:54.008Z,0
2016-09-15T02:10:54.040Z,0
2016-09-15T02:11:54.061Z,0
2016-09-15T02:12:54.092Z,0
2016-09-15T02:13:54.118Z,0
2016-09-15T02:14:54.142Z,0
2016-09-15T02:15:54.164Z,0
2016-09-15T02:16:54.204Z,0
2016-09-15T02:17:54.216Z,0
2016-09-15T02:18:54.244Z,0
2016-09-15T02:19:54.267Z,0
2016-09-15T02:20:54.291Z,0
2016-09-15T02:21:54.321Z,0
2016-09-15T02:22:54.346Z,0
2016-09-15T02:23:54.377Z,0
2016-09-15T02:24:54.398Z,0
2016-09-15T02:25:54.421Z,0
2016-09-15T02:26:54.454Z,0
2016-09-15T02:27:54.478Z,0
2016-09-15T02:28:54.508Z,0
2016-09-15T02:29:54.528Z,0
2016-09-15T02:30:54.557Z,0
2016-09-15T02:31:54.574Z,0
2016-09-15T02:32:54.610Z,0
2016-09-15T02:33:54.635Z,0
2016-09-15T02:34:54.656Z,0
2016-09-15T02:35:54.676Z,0
2016-09-15T02:36:54.708Z,0
2016-09-15T02:37:54.747Z,0
2016-09-15T02:38:54.757Z,0
2016-09-15T02:39:54.784Z,0
2016-09-15T02:40:54.811Z,0
2016-09-15T02:41:54.836Z,0
2016-09-15T02:42:54.859Z,0
2016-09-15T02:43:54.885Z,0
2016-09-15T02:44:54.922Z,0
2016-09-15T02:45:54.939Z,0
2016-09-15T02:46:54.960Z,0
2016-09-15T02:47:55.300Z,0
2016-09-15T02:48:55.010Z,0
2016-09-15T02:49:55.040Z,0
2016-09-15T02:50:55.060Z,0
2016-09-15T02:51:55.095Z,0
2016-09-15T02:52:55.112Z,0
2016-09-15T02:53:55.139Z,0
2016-09-15T02:54:55.161Z,0
2016-09-15T02:55:55.190Z,0
2016-09-15T02:56:55.225Z,0
2016-09-15T02:57:55.240Z,0
2016-09-15T02:58:55.267Z,0
2016-09-15T02:59:55.302Z,0
2016-09-15T03:00:55.322Z,0
2016-09-15T03:01:55.346Z,0
2016-09-15T03:02:55.368Z,0
2016-09-15T03:03:55.395Z,0
2016-09-15T03:04:55.422Z,0
2016-09-15T03:05:55.443Z,0
2016-09-15T03:06:55.472Z,0
2016-09-15T03:07:55.493Z,0
2016-09-15T03:08:55.527Z,0
2016-09-15T03:09:55.551Z,0
2016-09-15T03:10:55.573Z,0
2016-09-15T03:11:55.592Z,0
2016-09-15T03:12:55.631Z,0
2016-09-15T03:13:55.648Z,0
2016-09-15T03:14:55.676Z,0
2016-09-15T03:15:55.697Z,0
2016-09-15T03:16:55.725Z,0
2016-09-15T03:17:55.750Z,0
2016-09-15T03:18:55.776Z,0
2016-09-15T03:19:55.800Z,0
2016-09-15T03:20:55.829Z,0
2016-09-15T03:21:55.851Z,0
2016-09-15T03:22:55.884Z,0
2016-09-15T03:23:55.902Z,0
2016-09-15T03:24:55.932Z,0
2016-09-15T03:25:55.959Z,0
2016-09-15T03:26:55.997Z,0
2016-09-15T03:27:56.314Z,0
2016-09-15T03:28:56.341Z,0
2016-09-15T03:29:56.073Z,0
2016-09-15T03:30:56.400Z,0
2016-09-15T03:31:56.423Z,0
2016-09-15T03:32:56.440Z,0
2016-09-15T03:33:56.157Z,0
2016-09-15T03:34:56.184Z,0
2016-09-15T03:35:56.225Z,0
2016-09-15T03:36:56.232Z,0
2016-09-15T03:37:56.258Z,0
2016-09-15T03:38:56.284Z,0
2016-09-15T03:39:56.307Z,0
2016-09-15T03:40:56.352Z,0
2016-09-15T03:41:56.359Z,0
2016-09-15T03:42:56.705Z,0
2016-09-15T03:43:56.407Z,0
2016-09-15T03:44:56.435Z,0
2016-09-15T03:45:56.463Z,0
2016-09-15T03:46:56.486Z,0
2016-09-15T03:47:56.515Z,0
2016-09-15T03:48:56.530Z,0
2016-09-15T03:49:56.557Z,0
2016-09-15T03:50:56.590Z,0
2016-09-15T03:51:56.607Z,0
2016-09-15T03:52:56.636Z,0
2016-09-15T03:53:56.668Z,0
2016-09-15T03:54:57.007Z,0
2016-09-15T03:55:56.710Z,0
2016-09-15T03:56:56.732Z,0
2016-09-15T03:57:56.759Z,0
2016-09-15T03:58:56.790Z,0
2016-09-15T03:59:56.805Z,0
2016-09-15T04:00:56.836Z,0
2016-09-15T04:01:56.861Z,0
2016-09-15T04:02:56.886Z,0
2016-09-15T04:03:57.230Z,0
2016-09-15T04:04:56.932Z,0
2016-09-15T04:05:56.958Z,0
2016-09-15T04:06:56.981Z,0
2016-09-15T04:07:57.007Z,0
2016-09-15T04:08:57.032Z,0
2016-09-15T04:09:57.057Z,0
2016-09-15T04:10:57.084Z,0
2016-09-15T04:11:57.114Z,0
2016-09-15T04:12:57.140Z,0
2016-09-15T04:13:57.183Z,0
2016-09-15T04:14:57.191Z,0
2016-09-15T04:15:57.210Z,0
2016-09-15T04:16:57.244Z,0
2016-09-15T04:17:57.257Z,0
2016-09-15T04:18:57.284Z,0
2016-09-15T04:19:57.313Z,0
2016-09-15T04:20:57.332Z,0
2016-09-15T04:21:57.357Z,0
2016-09-15T04:22:57.384Z,0
2016-09-15T04:23:57.414Z,0
2016-09-15T04:24:57.429Z,0
2016-09-15T04:25:57.530Z,0
2016-09-15T04:26:57.479Z,4
2016-09-15T04:27:57.508Z,4
2016-09-15T04:28:57.532Z,0
2016-09-15T04:29:57.577Z,4
2016-09-15T04:30:57.589Z,4
2016-09-15T04:31:57.613Z,4
2016-09-15T04:32:57.649Z,4
2016-09-15T04:33:57.654Z,4
2016-09-15T04:34:57.683Z,8
2016-09-15T04:35:57.708Z,8
2016-09-15T04:36:57.735Z,8
2016-09-15T04:37:57.760Z,12
2016-09-15T04:38:57.794Z,12
2016-09-15T04:39:57.814Z,12
2016-09-15T04:40:57.836Z,16
2016-09-15T04:41:57.867Z,20
2016-09-15T04:42:57.885Z,20
2016-09-15T04:43:57.907Z,20
2016-09-15T04:44:57.947Z,24
2016-09-15T04:45:57.962Z,24
2016-09-15T04:46:57.984Z,32
2016-09-15T04:47:58.006Z,32
2016-09-15T04:48:58.025Z,36
2016-09-15T04:49:58.068Z,36
2016-09-15T04:50:58.077Z,40
2016-09-15T04:51:58.105Z,44
2016-09-15T04:52:58.263Z,48
2016-09-15T04:53:58.155Z,48
2016-09-15T04:54:58.177Z,52
2016-09-15T04:55:58.519Z,52
2016-09-15T04:56:58.230Z,56
2016-09-15T04:57:58.253Z,60
2016-09-15T04:58:58.280Z,64
2016-09-15T04:59:58.301Z,68
2016-09-15T05:00:58.329Z,72
2016-09-15T05:01:58.351Z,76
2016-09-15T05:02:58.376Z,80
2016-09-15T05:03:58.415Z,84
2016-09-15T05:04:58.432Z,84
2016-09-15T05:05:58.443Z,88
2016-09-15T05:06:58.475Z,92
2016-09-15T05:07:58.502Z,96
2016-09-15T05:08:58.527Z,100
2016-09-15T05:09:58.861Z,104
2016-09-15T05:10:58.575Z,104
2016-09-15T05:11:58.594Z,108
2016-09-15T05:12:58.623Z,112
2016-09-15T05:13:58.645Z,116
2016-09-15T05:14:58.668Z,120
2016-09-15T05:15:59.011Z,120
2016-09-15T05:16:58.723Z,124
2016-09-15T05:17:58.745Z,132
2016-09-15T05:18:58.887Z,136
2016-09-15T05:19:58.798Z,140
2016-09-15T05:20:58.833Z,144
2016-09-15T05:21:58.848Z,144
2016-09-15T05:22:59.186Z,148
2016-09-15T05:23:58.982Z,152
2016-09-15T05:24:58.991Z,156
2016-09-15T05:25:58.945Z,160
2016-09-15T05:26:58.962Z,160
2016-09-15T05:27:58.992Z,164
2016-09-15T05:28:59.021Z,168
2016-09-15T05:29:59.044Z,168
2016-09-15T05:30:59.062Z,172
2016-09-15T05:31:59.094Z,176
2016-09-15T05:32:59.115Z,180
2016-09-15T05:33:59.139Z,184
2016-09-15T05:34:59.170Z,184
2016-09-15T05:35:59.188Z,188
2016-09-15T05:36:59.215Z,192
2016-09-15T05:37:59.239Z,196
2016-09-15T05:38:59.259Z,196
2016-09-15T05:39:59.292Z,200
2016-09-15T05:40:59.309Z,200
2016-09-15T05:41:59.335Z,208
2016-09-15T05:42:59.358Z,208
2016-09-15T05:43:59.381Z,208
2016-09-15T05:44:59.416Z,212
2016-09-15T05:45:59.428Z,216
2016-09-15T05:46:59.455Z,212
2016-09-15T05:47:59.479Z,216
2016-09-15T05:48:59.503Z,216
2016-09-15T05:49:59.528Z,220
2016-09-15T05:50:59.564Z,224
2016-09-15T05:51:59.587Z,224
2016-09-15T05:52:59.606Z,224
2016-09-15T05:53:59.628Z,224
2016-09-15T05:54:59.651Z,228
2016-09-15T05:55:59.674Z,228
2016-09-15T05:56:59.698Z,232
2016-09-15T05:57:59.723Z,232
2016-09-15T05:58:59.757Z,236
2016-09-15T05:59:59.775Z,236
2016-09-15T06:00:59.800Z,240
2016-09-15T06:01:59.822Z,244
2016-09-15T06:02:59.846Z,244
2016-09-15T06:03:59.868Z,248
2016-09-15T06:04:59.895Z,248
2016-09-15T06:05:59.916Z,248
2016-09-15T06:06:59.947Z,252
2016-09-15T06:07:59.964Z,256
2016-09-15T06:09:00.004Z,256
2016-09-15T06:10:00.019Z,260
2016-09-15T06:11:00.048Z,264
2016-09-15T06:12:00.065Z,264
2016-09-15T06:13:00.089Z,264
2016-09-15T06:14:00.126Z,268
2016-09-15T06:15:00.137Z,272
2016-09-15T06:16:00.180Z,272
2016-09-15T06:17:00.187Z,272
2016-09-15T06:18:00.221Z,276
2016-09-15T06:19:00.239Z,276
2016-09-15T06:20:00.267Z,276
2016-09-15T06:21:00.297Z,280
2016-09-15T06:22:00.314Z,280
2016-09-15T06:23:00.345Z,284
2016-09-15T06:24:00.362Z,288
2016-09-15T06:25:00.393Z,284
2016-09-15T06:26:00.409Z,284
2016-09-15T06:27:00.431Z,288
2016-09-15T06:28:00.473Z,288
2016-09-15T06:29:00.481Z,288
2016-09-15T06:30:00.510Z,292
2016-09-15T06:31:00.535Z,292
2016-09-15T06:32:00.561Z,292
2016-09-15T06:33:00.903Z,296
2016-09-15T06:34:00.620Z,292
2016-09-15T06:35:00.636Z,296
2016-09-15T06:36:00.657Z,296
2016-09-15T06:37:00.700Z,296
2016-09-15T06:38:00.705Z,296
2016-09-15T06:39:01.047Z,300
2016-09-15T06:40:00.753Z,300
2016-09-15T06:41:00.780Z,304
2016-09-15T06:42:00.810Z,304
2016-09-15T06:43:00.827Z,308
2016-09-15T06:44:00.859Z,312
2016-09-15T06:45:00.877Z,312
2016-09-15T06:46:00.908Z,312
2016-09-15T06:47:00.922Z,312
2016-09-15T06:48:00.953Z,316
2016-09-15T06:49:00.973Z,316
2016-09-15T06:50:01.001Z,320
2016-09-15T06:51:01.027Z,320
2016-09-15T06:52:01.045Z,320
2016-09-15T06:53:01.078Z,320
2016-09-15T06:54:01.099Z,320
2016-09-15T06:55:01.132Z,324
2016-09-15T06:56:01.153Z,328
2016-09-15T06:57:01.174Z,332
2016-09-15T06:58:01.194Z,332
2016-09-15T06:59:01.222Z,332
2016-09-15T07:00:01.249Z,336
2016-09-15T07:01:01.278Z,336
2016-09-15T07:02:01.298Z,336
2016-09-15T07:03:01.331Z,340
2016-09-15T07:04:01.357Z,340
2016-09-15T07:05:01.368Z,340
2016-09-15T07:06:01.394Z,340
2016-09-15T07:07:01.421Z,340
2016-09-15T07:08:01.444Z,340
2016-09-15T07:09:01.587Z,344
2016-09-15T07:10:01.586Z,344
2016-09-15T07:11:01.615Z,348
2016-09-15T07:12:01.634Z,348
2016-09-15T07:13:01.795Z,348
2016-09-15T07:14:01.796Z,352
2016-09-15T07:15:01.809Z,348
2016-09-15T07:16:01.818Z,352
2016-09-15T07:17:01.827Z,352
2016-09-15T07:18:01.869Z,352
2016-09-15T07:19:01.875Z,352
2016-09-15T07:20:01.883Z,352
2016-09-15T07:21:01.895Z,352
2016-09-15T07:22:01.894Z,356
2016-09-15T07:23:01.903Z,352
2016-09-15T07:24:01.948Z,356
2016-09-15T07:25:01.959Z,356
2016-09-15T07:26:01.964Z,356
2016-09-15T07:27:02.007Z,356
2016-09-15T07:28:01.997Z,360
2016-09-15T07:29:02.005Z,360
2016-09-15T07:30:02.021Z,360
2016-09-15T07:31:02.022Z,364
2016-09-15T07:32:02.400Z,368
2016-09-15T07:33:02.085Z,364
2016-09-15T07:34:02.098Z,368
2016-09-15T07:35:02.126Z,368
2016-09-15T07:36:02.150Z,372
2016-09-15T07:37:02.176Z,368
2016-09-15T07:38:02.201Z,372
2016-09-15T07:39:02.228Z,372
2016-09-15T07:40:02.251Z,372
2016-09-15T07:41:02.275Z,368
2016-09-15T07:42:02.307Z,368
2016-09-15T07:43:02.326Z,372
2016-09-15T07:44:02.351Z,368
2016-09-15T07:45:02.381Z,368
2016-09-15T07:46:02.414Z,368
2016-09-15T07:47:02.432Z,368
2016-09-15T07:48:02.647Z,364
2016-09-15T07:49:02.488Z,364
2016-09-15T07:50:02.504Z,364
2016-09-15T07:51:02.672Z,364
2016-09-15T07:52:02.594Z,368
2016-09-15T07:53:02.586Z,368
2016-09-15T07:54:02.637Z,368
2016-09-15T07:55:02.634Z,368
2016-09-15T07:56:02.665Z,368
2016-09-15T07:57:03.027Z,372
2016-09-15T07:58:02.721Z,372
2016-09-15T07:59:02.739Z,376
2016-09-15T08:00:02.789Z,376
2016-09-15T08:01:02.789Z,376
2016-09-15T08:02:02.863Z,372
2016-09-15T08:03:02.845Z,372
2016-09-15T08:04:02.873Z,368
2016-09-15T08:05:02.897Z,372
2016-09-15T08:06:02.943Z,368
2016-09-15T08:07:02.944Z,368
2016-09-15T08:08:02.991Z,364
2016-09-15T08:09:03.001Z,368
2016-09-15T08:10:03.119Z,364
2016-09-15T08:11:03.134Z,368
2016-09-15T08:12:03.083Z,368
2016-09-15T08:13:03.109Z,368
2016-09-15T08:14:03.154Z,368
2016-09-15T08:15:03.161Z,364
2016-09-15T08:16:03.219Z,364
2016-09-15T08:17:03.218Z,368
2016-09-15T08:18:03.236Z,364
2016-09-15T08:19:03.260Z,368
2016-09-15T08:20:03.306Z,364
2016-09-15T08:21:03.331Z,360
2016-09-15T08:22:03.353Z,364
2016-09-15T08:23:03.367Z,364
2016-09-15T08:24:03.411Z,360
2016-09-15T08:25:03.422Z,360
2016-09-15T08:26:03.448Z,360
2016-09-15T08:27:03.476Z,360
2016-09-15T08:28:03.509Z,360
2016-09-15T08:29:03.642Z,360
2016-09-15T08:30:04.275Z,356
2016-09-15T08:31:03.722Z,356
2016-09-15T08:32:03.700Z,360
2016-09-15T08:33:03.869Z,360
2016-09-15T08:34:03.786Z,360
2016-09-15T08:35:04.008Z,364
2016-09-15T08:36:03.929Z,368
2016-09-15T08:37:03.942Z,372
2016-09-15T08:38:03.951Z,380
2016-09-15T08:39:03.962Z,380
2016-09-15T08:40:03.960Z,384
2016-09-15T08:41:03.969Z,392
2016-09-15T08:42:04.106Z,392
2016-09-15T08:43:03.989Z,400
2016-09-15T08:44:04.047Z,404
2016-09-15T08:45:04.347Z,404
2016-09-15T08:46:04.066Z,412
2016-09-15T08:47:04.028Z,416
2016-09-15T08:48:04.034Z,420
2016-09-15T08:49:04.386Z,424
2016-09-15T08:50:04.155Z,428
2016-09-15T08:51:04.119Z,432
2016-09-15T08:52:04.146Z,432
2016-09-15T08:53:04.175Z,436
2016-09-15T08:54:04.202Z,440
2016-09-15T08:55:04.235Z,444
2016-09-15T08:56:04.257Z,448
2016-09-15T08:57:04.283Z,448
2016-09-15T08:58:04.310Z,456
2016-09-15T08:59:04.343Z,460
2016-09-15T09:00:04.366Z,460
2016-09-15T09:01:04.392Z,464
2016-09-15T09:02:04.431Z,468
2016-09-15T09:03:04.457Z,472
2016-09-15T09:04:04.474Z,480
2016-09-15T09:05:04.507Z,484
2016-09-15T09:06:04.530Z,492
2016-09-15T09:07:04.556Z,496
2016-09-15T09:08:04.584Z,500
2016-09-15T09:09:04.616Z,508
2016-09-15T09:10:04.658Z,508
2016-09-15T09:11:04.671Z,516
2016-09-15T09:12:04.692Z,520
2016-09-15T09:13:04.733Z,524
2016-09-15T09:14:04.757Z,532
2016-09-15T09:15:04.782Z,536
2016-09-15T09:16:04.847Z,536
2016-09-15T09:17:04.835Z,540
2016-09-15T09:18:04.873Z,548
2016-09-15T09:19:04.897Z,548
2016-09-15T09:20:04.920Z,552
2016-09-15T09:21:04.943Z,560
2016-09-15T09:22:04.995Z,560
2016-09-15T09:23:05.007Z,568
2016-09-15T09:24:05.053Z,568
2016-09-15T09:25:05.059Z,576
2016-09-15T09:26:05.088Z,576
2016-09-15T09:27:05.130Z,584
2016-09-15T09:28:05.147Z,588
2016-09-15T09:29:05.168Z,596
2016-09-15T09:30:05.208Z,596
2016-09-15T09:31:05.230Z,604
2016-09-15T09:32:05.264Z,600
2016-09-15T09:33:05.287Z,604
2016-09-15T09:34:05.310Z,604
2016-09-15T09:35:05.342Z,612
2016-09-15T09:36:05.396Z,616
2016-09-15T09:37:05.399Z,620
2016-09-15T09:38:05.466Z,628
2016-09-15T09:39:05.465Z,632
2016-09-15T09:40:05.484Z,640
2016-09-15T09:41:05.536Z,640
2016-09-15T09:42:05.544Z,644
2016-09-15T09:43:05.692Z,656
2016-09-15T09:44:05.731Z,660
2016-09-15T09:45:05.714Z,664
2016-09-15T09:46:05.744Z,668
2016-09-15T09:47:05.924Z,672
2016-09-15T09:48:05.925Z,676
2016-09-15T09:49:05.932Z,680
2016-09-15T09:50:06.073Z,684
2016-09-15T09:51:06.298Z,688
2016-09-15T09:52:05.996Z,692
2016-09-15T09:53:05.997Z,696
2016-09-15T09:54:06.004Z,700
2016-09-15T09:55:06.018Z,704
2016-09-15T09:56:06.025Z,712
2016-09-15T09:57:06.394Z,720
2016-09-15T09:58:06.092Z,724
2016-09-15T09:59:06.410Z,728
2016-09-15T10:00:06.118Z,732
2016-09-15T10:01:06.116Z,740
2016-09-15T10:02:06.131Z,744
2016-09-15T10:03:06.460Z,748
2016-09-15T10:04:06.174Z,752
2016-09-15T10:05:06.207Z,756
2016-09-15T10:06:06.237Z,764
2016-09-15T10:07:06.263Z,760
2016-09-15T10:08:06.288Z,768
2016-09-15T10:09:06.322Z,776
2016-09-15T10:10:06.348Z,784
2016-09-15T10:11:06.380Z,792
2016-09-15T10:12:06.409Z,796
2016-09-15T10:13:06.753Z,804
2016-09-15T10:14:06.472Z,808
2016-09-15T10:15:06.504Z,816
2016-09-15T10:16:06.526Z,816
2016-09-15T10:17:06.667Z,824
2016-09-15T10:18:06.678Z,828
2016-09-15T10:19:06.846Z,832
2016-09-15T10:20:06.871Z,836
2016-09-15T10:21:06.878Z,844
2016-09-15T10:22:06.882Z,848
2016-09-15T10:23:06.739Z,852
2016-09-15T10:24:06.779Z,856
2016-09-15T10:25:06.793Z,860
2016-09-15T10:26:06.907Z,868
2016-09-15T10:27:06.850Z,876
2016-09-15T10:28:06.924Z,888
2016-09-15T10:29:06.932Z,892
2016-09-15T10:30:06.940Z,900
2016-09-15T10:31:06.973Z,912
2016-09-15T10:32:07.003Z,920
2016-09-15T10:33:07.364Z,928
2016-09-15T10:34:07.104Z,936
2016-09-15T10:35:07.096Z,940
2016-09-15T10:36:07.151Z,948
2016-09-15T10:37:07.153Z,960
2016-09-15T10:38:07.180Z,968
2016-09-15T10:39:07.210Z,972
2016-09-15T10:40:07.254Z,980
2016-09-15T10:41:07.283Z,984
2016-09-15T10:42:07.322Z,988
2016-09-15T10:43:07.331Z,996
2016-09-15T10:44:07.477Z,1004
2016-09-15T10:45:07.482Z,1016
2016-09-15T10:46:07.589Z,1016
2016-09-15T10:47:07.665Z,1020
2016-09-15T10:48:07.680Z,1036
2016-09-15T10:49:07.627Z,1052
2016-09-15T10:50:07.596Z,1064
2016-09-15T10:51:07.574Z,1076
2016-09-15T10:52:07.599Z,1080
2016-09-15T10:53:07.639Z,1088
2016-09-15T10:54:07.718Z,1092
2016-09-15T10:55:07.699Z,1100
2016-09-15T10:56:07.721Z,1104
2016-09-15T10:57:07.755Z,1108
2016-09-15T10:58:07.796Z,1108
2016-09-15T10:59:07.825Z,1096
2016-09-15T11:00:07.846Z,1096
2016-09-15T11:01:07.884Z,1100
2016-09-15T11:02:07.910Z,1108
2016-09-15T11:03:07.940Z,1096
2016-09-15T11:04:07.984Z,1104
2016-09-15T11:05:07.997Z,1116
2016-09-15T11:06:08.033Z,1128
2016-09-15T11:07:08.061Z,1124
2016-09-15T11:08:08.093Z,1120
2016-09-15T11:09:08.436Z,1124
2016-09-15T11:10:08.157Z,1140
2016-09-15T11:11:08.188Z,1140
2016-09-15T11:12:08.216Z,1136
2016-09-15T11:13:08.252Z,1140
2016-09-15T11:14:08.274Z,1136
2016-09-15T11:15:08.318Z,1120
2016-09-15T11:16:08.494Z,1100
2016-09-15T11:17:08.505Z,1112
2016-09-15T11:18:08.501Z,1112
2016-09-15T11:19:08.644Z,1108
2016-09-15T11:20:08.653Z,1100
2016-09-15T11:21:08.669Z,1080
2016-09-15T11:22:08.677Z,1072
2016-09-15T11:23:08.865Z,1064
2016-09-15T11:24:08.686Z,1056
2016-09-15T11:25:08.654Z,1048
2016-09-15T11:26:08.664Z,1056
2016-09-15T11:27:08.680Z,1060
2016-09-15T11:28:08.714Z,1064
2016-09-15T11:29:08.743Z,1052
2016-09-15T11:30:08.773Z,1068
2016-09-15T11:31:09.120Z,1080
2016-09-15T11:32:08.837Z,1080
2016-09-15T11:33:08.865Z,1076
2016-09-15T11:34:08.903Z,1064
2016-09-15T11:35:08.943Z,1056
2016-09-15T11:36:08.962Z,1056
2016-09-15T11:37:08.997Z,1060
2016-09-15T11:38:09.346Z,1060
2016-09-15T11:39:09.054Z,1056
2016-09-15T11:40:09.085Z,1036
2016-09-15T11:41:09.119Z,1032
2016-09-15T11:42:09.147Z,1032
2016-09-15T11:43:09.186Z,1044
2016-09-15T11:44:09.216Z,1044
2016-09-15T11:45:09.242Z,1032
2016-09-15T11:46:09.288Z,1028
2016-09-15T11:47:09.315Z,1020
2016-09-15T11:48:09.339Z,1012
2016-09-15T11:49:09.369Z,992
2016-09-15T11:50:09.453Z,980
2016-09-15T11:51:09.431Z,980
2016-09-15T11:52:09.466Z,976
2016-09-15T11:53:09.492Z,972
2016-09-15T11:54:09.527Z,964
2016-09-15T11:55:09.558Z,940
2016-09-15T11:56:09.592Z,932
2016-09-15T11:57:09.622Z,928
2016-09-15T11:58:09.652Z,920
2016-09-15T11:59:09.687Z,928
2016-09-15T12:00:09.728Z,928
2016-09-15T12:01:09.770Z,924
2016-09-15T12:02:09.777Z,932
2016-09-15T12:03:09.815Z,936
2016-09-15T12:04:09.848Z,940
2016-09-15T12:05:09.872Z,948
2016-09-15T12:06:09.905Z,960
2016-09-15T12:07:09.933Z,964
2016-09-15T12:08:09.973Z,960
2016-09-15T12:09:10.000Z,952
2016-09-15T12:10:10.035Z,952
2016-09-15T12:11:10.073Z,936
2016-09-15T12:12:10.101Z,916
2016-09-15T12:13:10.131Z,900
2016-09-15T12:14:10.173Z,892
2016-09-15T12:15:10.197Z,880
2016-09-15T12:16:10.223Z,860
2016-09-15T12:17:10.372Z,844
2016-09-15T12:18:10.377Z,840
2016-09-15T12:19:10.552Z,848
2016-09-15T12:20:10.559Z,848
2016-09-15T12:21:10.573Z,852
2016-09-15T12:22:10.571Z,860
2016-09-15T12:23:10.580Z,848
2016-09-15T12:24:10.590Z,832
2016-09-15T12:25:10.599Z,832
2016-09-15T12:26:10.741Z,848
2016-09-15T12:27:10.745Z,852
2016-09-15T12:28:11.069Z,848
2016-09-15T12:29:10.730Z,848
2016-09-15T12:30:10.724Z,848
2016-09-15T12:31:10.731Z,832
2016-09-15T12:32:10.743Z,816
2016-09-15T12:33:10.770Z,816
2016-09-15T12:34:10.790Z,808
2016-09-15T12:35:10.833Z,800
2016-09-15T12:36:10.858Z,800
2016-09-15T12:37:10.891Z,788
2016-09-15T12:38:10.921Z,764
2016-09-15T12:39:10.956Z,744
2016-09-15T12:40:10.986Z,744
2016-09-15T12:41:11.019Z,744
2016-09-15T12:42:11.047Z,740
2016-09-15T12:43:11.093Z,740
2016-09-15T12:44:11.115Z,740
2016-09-15T12:45:11.146Z,736
2016-09-15T12:46:11.178Z,728
2016-09-15T12:47:11.529Z,720
2016-09-15T12:48:11.241Z,716
2016-09-15T12:49:11.281Z,708
2016-09-15T12:50:11.302Z,700
2016-09-15T12:51:11.339Z,688
2016-09-15T12:52:11.372Z,668
2016-09-15T12:53:11.406Z,664
2016-09-15T12:54:11.428Z,676
2016-09-15T12:55:11.470Z,684
2016-09-15T12:56:11.495Z,680
2016-09-15T12:57:11.523Z,680
2016-09-15T12:58:11.566Z,684
2016-09-15T12:59:11.590Z,700
2016-09-15T13:00:11.630Z,696
2016-09-15T13:01:11.657Z,688
2016-09-15T13:02:11.686Z,672
2016-09-15T13:03:11.721Z,676
2016-09-15T13:04:11.750Z,684
2016-09-15T13:05:11.785Z,688
2016-09-15T13:06:12.126Z,696
2016-09-15T13:07:11.849Z,708
2016-09-15T13:08:11.877Z,708
2016-09-15T13:09:11.910Z,704
2016-09-15T13:10:11.946Z,704
2016-09-15T13:11:11.979Z,696
2016-09-15T13:12:12.005Z,696
2016-09-15T13:13:12.042Z,700
2016-09-15T13:14:12.071Z,704
2016-09-15T13:15:12.108Z,708
2016-09-15T13:16:12.143Z,704
2016-09-15T13:17:12.174Z,712
2016-09-15T13:18:12.202Z,724
2016-09-15T13:19:12.233Z,732
2016-09-15T13:20:12.268Z,736
2016-09-15T13:21:12.300Z,732
2016-09-15T13:22:12.443Z,720
2016-09-15T13:23:12.472Z,712
2016-09-15T13:24:12.629Z,704
2016-09-15T13:25:12.646Z,700
2016-09-15T13:26:12.643Z,708
2016-09-15T13:27:12.664Z,716
2016-09-15T13:28:12.667Z,720
2016-09-15T13:29:12.674Z,720
2016-09-15T13:30:12.683Z,720
2016-09-15T13:31:12.807Z,720
2016-09-15T13:32:12.829Z,724
2016-09-15T13:33:12.770Z,732
2016-09-15T13:34:12.845Z,756
2016-09-15T13:35:12.808Z,788
2016-09-15T13:36:12.818Z,800
2016-09-15T13:37:12.827Z,816
2016-09-15T13:38:12.844Z,824
2016-09-15T13:39:12.879Z,824
2016-09-15T13:40:12.922Z,820
2016-09-15T13:41:12.939Z,816
2016-09-15T13:42:12.972Z,828
2016-09-15T13:43:13.004Z,840
2016-09-15T13:44:13.037Z,848
2016-09-15T13:45:13.069Z,848
2016-09-15T13:46:13.099Z,852
2016-09-15T13:47:13.135Z,860
2016-09-15T13:48:13.162Z,876
2016-09-15T13:49:13.220Z,888
2016-09-15T13:50:13.230Z,900
2016-09-15T13:51:13.264Z,904
2016-09-15T13:52:13.307Z,916
2016-09-15T13:53:13.594Z,928
2016-09-15T13:54:13.503Z,928
2016-09-15T13:55:13.512Z,940
2016-09-15T13:56:13.743Z,944
2016-09-15T13:57:13.482Z,956
2016-09-15T13:58:13.504Z,964
2016-09-15T13:59:13.515Z,972
2016-09-15T14:00:13.557Z,988
2016-09-15T14:01:13.585Z,996
2016-09-15T14:02:13.617Z,1004
2016-09-15T14:03:13.961Z,1012
2016-09-15T14:04:13.687Z,1016